Time;durP1;ratioP1;P1;durP2;ratioP2;P2;SDS_P1;SDS_P2;PMS_P1;PMS_P2;Temp;Humidity;BMP_temperature;BMP_pressure;BME280_temperature;BME280_humidity;BME280_pressure;Samples;Min_cycle;Max_cycle;Signal;HPM_P1;HPM_P2
2022/11/20 00:01:34;;;;;;;6.97;1.70;;;;;;;18.66;76.46;93925.72;5141686;27;20198;-81
2022/11/20 00:04:02;;;;;;;3.47;1.58;;;;;;;18.68;76.60;93957.81;5141748;27;20214;-80
2022/11/20 00:06:30;;;;;;;7.03;1.55;;;;;;;18.73;76.36;93918.25;5142363;27;20187;-80
2022/11/20 00:08:58;;;;;;;4.97;1.50;;;;;;;18.75;76.11;93933.75;5141353;27;20187;-79
2022/11/20 00:11:27;;;;;;;4.13;1.77;;;;;;;18.74;76.41;93921.66;5147364;27;20195;-80
2022/11/20 00:13:56;;;;;;;8.20;1.80;;;;;;;18.69;76.09;93915.41;5140436;27;20642;-81
2022/11/20 00:16:28;;;;;;;5.05;1.52;;;;;;;18.75;76.01;93939.81;5135509;27;20205;-80
2022/11/20 00:18:55;;;;;;;6.22;1.90;;;;;;;18.75;75.88;93910.84;5150276;27;20194;-78
2022/11/20 00:21:23;;;;;;;2.08;1.40;;;;;;;18.82;74.92;93928.91;5136579;27;20203;-81
2022/11/20 00:23:51;;;;;;;8.18;1.60;;;;;;;18.93;73.69;93923.19;5145266;27;20233;-79
2022/11/20 00:26:20;;;;;;;2.30;1.65;;;;;;;18.90;74.88;93923.81;5140831;27;20191;-79
2022/11/20 00:28:51;;;;;;;4.93;1.40;;;;;;;18.87;74.08;93934.91;5142622;27;20194;-78
2022/11/20 00:31:18;;;;;;;6.38;1.70;;;;;;;18.65;75.08;93937.31;5141246;27;20208;-79
2022/11/20 00:33:47;;;;;;;2.22;1.35;;;;;;;18.67;74.32;93900.97;5147030;27;20206;-78
2022/11/20 00:36:16;;;;;;;2.87;1.60;;;;;;;18.86;74.74;93929.91;5142418;27;20193;-78
2022/11/20 00:38:43;;;;;;;1.92;1.45;;;;;;;18.89;73.78;93897.75;5141204;27;20191;-79
2022/11/20 00:41:11;;;;;;;1.45;1.33;;;;;;;18.94;74.09;93924.78;5141778;27;20189;-78
2022/11/20 00:43:39;;;;;;;2.47;1.45;;;;;;;18.89;74.89;93919.59;5144252;27;20284;-78
2022/11/20 00:46:07;;;;;;;2.25;1.60;;;;;;;19.08;73.06;93930.06;5142803;27;20559;-78
2022/11/20 00:48:34;;;;;;;5.72;1.73;;;;;;;18.95;73.74;93921.06;5137880;27;20191;-78
2022/11/20 00:51:02;;;;;;;2.67;1.48;;;;;;;18.70;75.65;93918.81;5141772;27;20296;-82
2022/11/20 00:53:29;;;;;;;3.40;1.60;;;;;;;18.57;76.12;93925.59;5153392;27;20634;-80
2022/11/20 00:55:57;;;;;;;6.75;1.52;;;;;;;18.68;75.35;93907.78;5153835;27;20194;-80
2022/11/20 00:58:24;;;;;;;4.47;1.77;;;;;;;18.84;75.45;93911.00;5150260;27;20191;-80
2022/11/20 01:00:51;;;;;;;2.47;1.30;;;;;;;18.89;74.80;93893.25;5142190;27;20195;-81
2022/11/20 01:03:18;;;;;;;5.15;1.60;;;;;;;18.93;73.66;93904.00;5138594;27;20211;-80
2022/11/20 01:05:45;;;;;;;4.57;1.58;;;;;;;19.01;75.37;93937.59;5141289;27;20186;-80
2022/11/20 01:08:13;;;;;;;3.47;1.70;;;;;;;18.98;75.54;93930.25;5146523;27;20198;-80
2022/11/20 01:10:40;;;;;;;4.10;1.52;;;;;;;18.91;75.84;93919.28;5141624;27;20203;-80
2022/11/20 01:15:51;;;;;;;3.03;1.48;;;;;;;18.91;75.22;93930.63;5143575;27;20186;-80
2022/11/20 01:18:17;;;;;;;4.53;1.83;;;;;;;18.89;75.48;93901.16;5139730;27;20191;-80
2022/11/20 01:20:44;;;;;;;4.93;1.80;;;;;;;18.82;75.94;93899.94;5136745;27;20677;-80
2022/11/20 01:23:12;;;;;;;3.35;1.58;;;;;;;18.86;75.48;93887.78;5143696;27;20218;-79
2022/11/20 01:25:39;;;;;;;4.95;1.77;;;;;;;18.90;75.09;93894.03;5140383;27;20218;-79
2022/11/20 01:28:06;;;;;;;6.00;1.50;;;;;;;18.91;73.92;93893.75;5142204;27;20202;-80
2022/11/20 01:30:33;;;;;;;5.35;1.60;;;;;;;18.88;75.15;93899.59;5144796;27;20203;-79
2022/11/20 01:32:59;;;;;;;3.25;1.40;;;;;;;18.89;74.12;93898.53;5143860;27;20202;-79
2022/11/20 01:35:26;;;;;;;2.40;1.63;;;;;;;18.91;74.84;93872.69;5138272;27;20196;-79
2022/11/20 01:37:53;;;;;;;4.88;1.33;;;;;;;18.86;74.73;93887.78;5136615;27;20195;-80
2022/11/20 01:40:21;;;;;;;3.95;1.63;;;;;;;18.85;75.12;93876.47;5147638;27;20186;-79
2022/11/20 01:46:04;;;;;;;4.40;1.50;;;;;;;18.84;73.95;93895.97;5148112;27;20193;-79
2022/11/20 01:48:37;;;;;;;2.40;1.35;;;;;;;18.85;73.88;93880.94;5145918;27;20569;-79
2022/11/20 01:51:07;;;;;;;2.22;1.42;;;;;;;18.85;74.34;93894.09;5147104;27;20205;-79
2022/11/20 01:53:37;;;;;;;3.10;1.70;;;;;;;18.90;73.99;93954.63;5144140;27;20195;-80
2022/11/20 01:56:10;;;;;;;4.18;1.73;;;;;;;18.84;73.76;93884.66;5141860;27;20206;-80
2022/11/20 01:58:41;;;;;;;3.03;1.30;;;;;;;18.84;75.11;93913.63;5155998;27;20881;-81
2022/11/20 02:01:07;;;;;;;6.80;1.67;;;;;;;18.82;75.42;93915.75;5151058;27;20188;-80
2022/11/20 02:03:34;;;;;;;2.20;1.33;;;;;;;18.79;75.55;93887.38;5156308;27;20225;-80
2022/11/20 02:06:10;;;;;;;2.17;1.50;;;;;;;18.74;75.42;93908.50;5150876;27;20191;-80
2022/11/20 02:08:38;;;;;;;2.70;1.48;;;;;;;18.72;75.75;93892.22;5142287;27;20194;-80
2022/11/20 02:11:07;;;;;;;5.07;1.55;;;;;;;18.70;76.09;93910.91;5138770;27;20192;-80
2022/11/20 02:13:42;;;;;;;2.50;1.30;;;;;;;18.66;75.01;93899.41;5144053;27;20203;-80
2022/11/20 02:16:12;;;;;;;4.70;1.67;;;;;;;18.67;75.98;93900.97;5154833;27;20197;-80
2022/11/20 02:18:40;;;;;;;3.27;1.50;;;;;;;18.64;76.30;93909.44;5153043;27;20195;-80
2022/11/20 02:21:14;;;;;;;4.72;1.60;;;;;;;18.65;75.95;93908.38;5137755;27;20210;-80
2022/11/20 02:23:57;;;;;;;5.00;1.60;;;;;;;18.59;76.60;93905.03;5146530;27;20215;-79
2022/11/20 02:26:25;;;;;;;6.07;2.03;;;;;;;18.48;76.56;93894.91;5145192;27;20188;-79
2022/11/20 02:28:52;;;;;;;4.68;1.63;;;;;;;18.48;76.83;93900.97;5150192;27;20191;-78
2022/11/20 02:31:19;;;;;;;5.72;1.42;;;;;;;18.47;76.80;93909.16;5144676;27;20187;-79
2022/11/20 02:33:46;;;;;;;4.72;1.70;;;;;;;18.45;76.91;93901.50;5148802;27;20194;-78
2022/11/20 02:36:16;;;;;;;3.08;1.33;;;;;;;18.45;77.29;93909.41;5140384;27;20191;-80
2022/11/20 02:38:44;;;;;;;4.60;1.70;;;;;;;18.47;77.39;93904.63;5140754;27;20198;-80
2022/11/20 02:41:12;;;;;;;4.72;1.75;;;;;;;18.43;77.38;93916.81;5141187;27;20195;-80
2022/11/20 02:43:39;;;;;;;3.10;1.60;;;;;;;18.42;77.21;93911.81;5144010;27;20234;-81
2022/11/20 02:46:09;;;;;;;4.35;1.60;;;;;;;18.45;77.52;93930.47;5144997;27;20214;-80
2022/11/20 02:48:36;;;;;;;4.57;1.80;;;;;;;18.43;77.93;93922.09;5140187;27;20191;-78
2022/11/20 02:51:03;;;;;;;3.28;1.60;;;;;;;18.42;78.52;93920.50;5145380;27;20206;-78
2022/11/20 02:53:30;;;;;;;5.33;1.70;;;;;;;18.41;78.69;93937.34;5144215;27;20623;-77
2022/11/20 02:55:56;;;;;;;5.60;1.87;;;;;;;18.36;79.39;93934.78;5143257;27;20202;-78
2022/11/20 02:58:25;;;;;;;3.97;1.83;;;;;;;18.32;79.91;93927.75;5139262;27;20195;-78
2022/11/20 03:00:52;;;;;;;5.83;2.10;;;;;;;18.30;80.48;93928.03;5147414;27;20203;-78
2022/11/20 03:03:19;;;;;;;3.40;1.90;;;;;;;18.17;81.37;93939.25;5143323;27;20190;-78
2022/11/20 03:05:46;;;;;;;3.57;1.80;;;;;;;18.13;81.96;93931.13;5148767;27;20727;-77
2022/11/20 03:08:13;;;;;;;5.33;1.90;;;;;;;18.07;82.43;93921.75;5149191;27;20634;-78
2022/11/20 03:10:39;;;;;;;6.93;2.00;;;;;;;18.10;82.55;93952.75;5140621;27;20190;-79
2022/11/20 03:13:06;;;;;;;4.00;2.00;;;;;;;18.05;82.84;93944.13;5136523;27;20244;-79
2022/11/20 03:15:36;;;;;;;4.93;2.20;;;;;;;18.03;82.64;93948.91;5138862;27;20183;-79
2022/11/20 03:18:03;;;;;;;6.63;2.30;;;;;;;17.95;83.20;93933.75;5143059;27;20554;-78
2022/11/20 03:20:30;;;;;;;14.37;2.23;;;;;;;17.90;83.48;93926.69;5140819;27;20196;-79
2022/11/20 03:22:56;;;;;;;4.90;2.03;;;;;;;17.91;84.11;93938.78;5133870;27;20232;-79
2022/11/20 03:25:23;;;;;;;6.27;2.10;;;;;;;17.88;84.13;93941.97;5142320;27;20230;-78
2022/11/20 03:27:50;;;;;;;3.50;1.93;;;;;;;17.83;84.73;93947.28;5140188;27;20610;-78
2022/11/20 03:30:17;;;;;;;7.33;2.33;;;;;;;17.87;82.94;93935.13;5149226;27;20209;-78
2022/11/20 03:32:46;;;;;;;5.73;1.80;;;;;;;17.87;82.67;93953.53;5147811;27;20194;-79
2022/11/20 03:35:13;;;;;;;4.00;1.83;;;;;;;17.87;82.60;93948.28;5139334;27;20191;-77
2022/11/20 03:37:40;;;;;;;4.20;1.63;;;;;;;17.87;82.79;93948.28;5145272;27;20559;-78
2022/11/20 03:40:09;;;;;;;4.00;1.83;;;;;;;17.73;84.29;93971.03;5148693;27;20200;-78
2022/11/20 03:42:47;;;;;;;5.67;1.90;;;;;;;17.71;84.44;93972.38;5142921;27;20194;-78
2022/11/20 03:45:15;;;;;;;4.60;1.80;;;;;;;17.76;84.12;93988.88;5144611;27;20199;-78
2022/11/20 03:47:42;;;;;;;7.20;1.93;;;;;;;17.74;84.19;93967.38;5144497;27;20191;-78
2022/11/20 03:50:13;;;;;;;7.60;2.20;;;;;;;17.65;85.04;93989.25;5143603;27;20203;-78
2022/11/20 03:52:40;;;;;;;5.40;1.93;;;;;;;17.55;84.89;93971.75;5145750;27;20275;-78
2022/11/20 03:55:07;;;;;;;2.97;1.63;;;;;;;17.64;84.04;93961.41;5142519;27;20203;-78
2022/11/20 03:57:34;;;;;;;4.27;1.90;;;;;;;17.66;82.50;93965.34;5134546;27;20196;-80
2022/11/20 04:00:01;;;;;;;2.83;1.73;;;;;;;17.77;82.11;93979.94;5141515;27;20194;-80
2022/11/20 04:02:27;;;;;;;2.17;1.40;;;;;;;17.87;81.26;93974.56;5138800;27;20200;-80
2022/11/20 04:04:54;;;;;;;5.20;1.80;;;;;;;17.83;81.89;93980.69;5139163;27;20222;-79
2022/11/20 04:07:22;;;;;;;4.87;1.90;;;;;;;17.75;82.00;93978.66;5145628;27;20224;-79
2022/11/20 04:09:49;;;;;;;3.40;1.77;;;;;;;17.68;82.68;93983.44;5145747;27;20195;-80
2022/11/20 04:12:16;;;;;;;4.37;1.70;;;;;;;17.64;83.44;93988.47;5148295;27;20190;-79
2022/11/20 04:14:42;;;;;;;7.00;2.00;;;;;;;17.73;82.84;93972.88;5140264;27;20201;-80
2022/11/20 04:17:09;;;;;;;4.97;1.67;;;;;;;17.66;82.82;93975.84;5146749;27;20193;-79
2022/11/20 04:19:36;;;;;;;5.33;1.87;;;;;;;17.67;83.83;93972.16;5147183;27;20202;-79
2022/11/20 04:22:03;;;;;;;7.83;1.90;;;;;;;17.69;83.29;93977.16;5144511;27;20636;-79
2022/11/20 04:24:31;;;;;;;4.77;1.70;;;;;;;17.75;81.61;93960.25;5147359;27;20224;-79
2022/11/20 04:26:58;;;;;;;1.97;1.50;;;;;;;17.80;81.01;93960.19;5139001;27;20207;-79
2022/11/20 04:29:24;;;;;;;3.60;1.60;;;;;;;17.76;81.40;93982.84;5143819;27;20197;-79
2022/11/20 04:31:52;;;;;;;3.13;1.70;;;;;;;17.75;81.42;93978.66;5138494;27;20195;-79
2022/11/20 04:34:19;;;;;;;3.03;1.60;;;;;;;17.76;81.00;93991.50;5142024;27;20192;-79
2022/11/20 04:36:46;;;;;;;2.70;1.53;;;;;;;17.77;81.54;93994.94;5140603;27;20252;-79
2022/11/20 04:39:15;;;;;;;5.30;1.63;;;;;;;17.80;82.16;93984.66;5146921;27;20198;-79
2022/11/20 04:41:43;;;;;;;3.60;1.60;;;;;;;17.74;82.46;93977.09;5146704;27;20281;-79
2022/11/20 04:44:10;;;;;;;5.93;1.57;;;;;;;17.76;82.58;93980.22;5142801;27;20586;-79
2022/11/20 04:46:39;;;;;;;3.77;1.50;;;;;;;17.74;82.54;93962.09;5150540;27;20450;-80
2022/11/20 04:49:07;;;;;;;2.47;1.33;;;;;;;17.68;82.87;93972.94;5145351;27;20693;-79
2022/11/20 04:51:34;;;;;;;4.43;1.50;;;;;;;17.66;82.52;93959.31;5144746;27;20183;-78
2022/11/20 04:54:01;;;;;;;5.87;1.57;;;;;;;17.66;82.61;93983.75;5135977;27;20187;-80
2022/11/20 04:56:28;;;;;;;3.57;1.50;;;;;;;17.67;82.67;93939.81;5143546;27;20198;-79
2022/11/20 04:58:56;;;;;;;5.77;1.80;;;;;;;17.70;82.48;93947.16;5143626;27;20239;-79
2022/11/20 05:01:24;;;;;;;5.03;1.47;;;;;;;17.71;82.06;93941.63;5132287;28;20676;-80
2022/11/20 05:03:51;;;;;;;2.07;1.40;;;;;;;17.68;82.59;93931.69;5141101;27;20195;-81
2022/11/20 05:06:20;;;;;;;2.60;1.50;;;;;;;17.65;82.80;93934.88;5146874;27;20194;-80
2022/11/20 05:08:47;;;;;;;3.43;1.53;;;;;;;17.62;80.45;93919.66;5147067;27;20195;-80
2022/11/20 05:11:16;;;;;;;1.57;1.23;;;;;;;17.69;80.71;93921.94;5155213;27;20183;-79
2022/11/20 05:13:43;;;;;;;3.60;1.30;;;;;;;17.66;81.03;93928.56;5143496;27;20201;-79
2022/11/20 05:16:13;;;;;;;1.90;1.33;;;;;;;17.70;81.15;93934.78;5152447;27;20651;-79
2022/11/20 05:18:40;;;;;;;3.27;1.47;;;;;;;17.62;81.25;93921.50;5144815;27;20190;-79
2022/11/20 05:21:07;;;;;;;1.70;1.30;;;;;;;17.63;80.86;93920.44;5140827;27;20191;-79
2022/11/20 05:23:35;;;;;;;2.97;1.30;;;;;;;17.65;81.24;93940.13;5143590;27;20575;-79
2022/11/20 05:26:02;;;;;;;3.63;1.37;;;;;;;17.54;82.22;93928.16;5144982;27;20211;-78
2022/11/20 05:28:31;;;;;;;3.50;1.30;;;;;;;17.47;82.59;93938.16;5140842;27;20188;-80
2022/11/20 05:31:05;;;;;;;2.43;1.30;;;;;;;17.39;82.59;93909.88;5139177;27;20197;-79
2022/11/20 05:33:33;;;;;;;5.53;1.57;;;;;;;17.38;82.62;93934.56;5136753;27;20239;-81
2022/11/20 05:36:00;;;;;;;4.30;1.87;;;;;;;17.29;83.42;93958.03;5136567;27;20192;-80
2022/11/20 05:38:27;;;;;;;2.20;1.50;;;;;;;17.25;82.44;93927.34;5143797;27;20175;-81
2022/11/20 05:40:54;;;;;;;4.90;1.77;;;;;;;17.35;82.80;93958.75;5142563;27;20191;-80
2022/11/20 05:43:21;;;;;;;2.83;1.90;;;;;;;17.17;83.28;93920.81;5147936;27;20652;-79
2022/11/20 05:45:53;;;;;;;4.10;2.43;;;;;;;17.17;84.14;93936.59;5140339;27;20413;-79
2022/11/20 05:48:21;;;;;;;6.30;1.93;;;;;;;17.23;84.16;93934.72;5147397;27;20266;-79
2022/11/20 05:50:49;;;;;;;3.70;1.63;;;;;;;17.27;84.93;93951.47;5145858;27;20206;-78
2022/11/20 05:53:16;;;;;;;5.63;1.87;;;;;;;17.27;84.68;93944.38;5144131;27;20188;-79
2022/11/20 05:55:43;;;;;;;4.93;2.13;;;;;;;17.18;85.26;93958.38;5141821;27;20187;-78
2022/11/20 05:58:09;;;;;;;5.57;2.00;;;;;;;17.19;84.92;93958.13;5147221;27;20241;-76
2022/11/20 06:00:37;;;;;;;4.80;2.00;;;;;;;17.11;85.90;93965.81;5147455;27;20658;-78
2022/11/20 06:03:03;;;;;;;5.17;2.23;;;;;;;17.08;86.68;93968.97;5146309;27;20291;-78
2022/11/20 06:05:31;;;;;;;5.60;2.00;;;;;;;16.98;86.63;93969.84;5148473;27;20214;-78
2022/11/20 06:08:01;;;;;;;5.17;2.10;;;;;;;17.10;87.12;93980.78;5144751;27;20370;-78
2022/11/20 06:10:28;;;;;;;4.43;1.93;;;;;;;17.12;87.52;93983.13;5144018;27;20188;-77
2022/11/20 06:12:54;;;;;;;1.67;1.50;;;;;;;17.09;88.31;93960.81;5141010;27;20202;-78
2022/11/20 06:15:21;;;;;;;4.00;1.60;;;;;;;17.05;89.12;93945.91;5146333;27;20191;-78
2022/11/20 06:17:48;;;;;;;7.87;2.10;;;;;;;17.02;89.45;93968.25;5143297;27;20252;-77
2022/11/20 06:20:17;;;;;;;6.47;2.13;;;;;;;17.02;89.83;93971.66;5149150;27;20613;-79
2022/11/20 06:22:43;;;;;;;3.17;1.93;;;;;;;17.16;89.11;93982.31;5142762;27;20654;-77
2022/11/20 06:25:12;;;;;;;6.90;2.37;;;;;;;17.09;88.79;93963.44;5146707;27;20233;-78
2022/11/20 06:27:39;;;;;;;6.70;2.80;;;;;;;17.03;89.31;93975.03;5143972;27;20260;-78
2022/11/20 06:30:06;;;;;;;8.20;2.87;;;;;;;17.07;89.28;93989.19;5144703;27;20198;-78
2022/11/20 06:32:34;;;;;;;5.53;3.00;;;;;;;17.06;89.00;93965.81;5143809;27;20191;-79
2022/11/20 06:35:01;;;;;;;6.93;2.50;;;;;;;17.12;89.00;93977.84;5143608;27;20675;-78
2022/11/20 06:37:27;;;;;;;4.30;2.10;;;;;;;17.21;88.44;93976.22;5144787;27;20672;-77
2022/11/20 06:39:54;;;;;;;7.40;2.17;;;;;;;17.24;88.32;93983.56;5142776;27;20198;-78
2022/11/20 06:42:22;;;;;;;4.43;1.97;;;;;;;17.28;88.21;93985.38;5145067;27;20204;-78
2022/11/20 06:44:49;;;;;;;7.07;2.60;;;;;;;17.34;87.80;93999.25;5139943;27;20215;-79
2022/11/20 06:47:16;;;;;;;6.03;2.23;;;;;;;17.43;87.42;94000.22;5145915;27;20191;-79
2022/11/20 06:49:43;;;;;;;4.70;2.00;;;;;;;17.46;86.89;93992.53;5151938;27;20208;-77
2022/11/20 06:52:09;;;;;;;3.67;1.67;;;;;;;17.47;87.25;93993.34;5143724;27;20199;-76
2022/11/20 06:54:36;;;;;;;2.77;1.90;;;;;;;17.53;87.51;93994.84;5142835;27;20656;-75
2022/11/20 06:57:03;;;;;;;6.30;2.30;;;;;;;17.52;87.42;93980.13;5142728;27;20649;-76
2022/11/20 06:59:31;;;;;;;10.23;2.40;;;;;;;17.54;87.77;93996.47;5143584;27;20566;-76
2022/11/20 07:01:58;;;;;;;4.60;2.20;;;;;;;17.56;86.79;93996.97;5145263;27;20195;-75
2022/11/20 07:04:25;;;;;;;4.80;2.20;;;;;;;17.57;86.42;94015.06;5143686;27;20194;-76
2022/11/20 07:06:51;;;;;;;5.70;2.40;;;;;;;17.64;86.54;93985.84;5142916;27;20194;-75
2022/11/20 07:09:19;;;;;;;5.17;1.80;;;;;;;17.57;86.42;93995.91;5142914;27;20199;-76
2022/11/20 07:11:45;;;;;;;9.53;2.03;;;;;;;17.69;85.76;94006.06;5136792;27;20192;-76
2022/11/20 07:14:12;;;;;;;8.87;2.40;;;;;;;17.61;86.26;94010.06;5138991;27;20205;-76
2022/11/20 07:16:40;;;;;;;7.67;2.23;;;;;;;17.49;86.88;94009.59;5144288;27;20247;-76
2022/11/20 07:19:07;;;;;;;6.03;1.73;;;;;;;17.48;85.28;94021.19;5141269;27;20196;-76
2022/11/20 07:21:34;;;;;;;5.77;2.00;;;;;;;17.46;85.77;94016.19;5141095;27;20191;-76
2022/11/20 07:24:01;;;;;;;5.73;2.33;;;;;;;17.39;86.60;93988.69;5144370;27;20214;-75
2022/11/20 07:26:27;;;;;;;8.17;2.00;;;;;;;17.46;86.03;94000.44;5142863;27;20207;-74
2022/11/20 07:28:54;;;;;;;4.77;1.93;;;;;;;17.53;85.38;94039.53;5141901;27;20186;-75
2022/11/20 07:31:21;;;;;;;3.87;1.60;;;;;;;17.56;84.03;94015.34;5144241;27;20263;-74
2022/11/20 07:33:49;;;;;;;7.63;2.00;;;;;;;17.76;83.32;94023.06;5142406;27;20190;-75
2022/11/20 07:36:16;;;;;;;7.30;2.07;;;;;;;17.68;84.12;94010.53;5142423;27;20211;-78
2022/11/20 07:38:43;;;;;;;6.37;2.30;;;;;;;17.64;84.13;94006.88;5142098;27;20229;-76
2022/11/20 07:41:10;;;;;;;4.60;2.27;;;;;;;17.63;85.04;94012.41;5140738;27;20194;-75
2022/11/20 07:43:36;;;;;;;4.77;2.00;;;;;;;17.67;84.54;94024.72;5143290;27;20188;-75
2022/11/20 07:46:04;;;;;;;5.83;2.50;;;;;;;17.64;85.10;94027.09;5141816;27;20215;-76
2022/11/20 07:48:30;;;;;;;6.07;2.40;;;;;;;17.63;85.25;93999.28;5143082;27;20190;-76
2022/11/20 07:50:59;;;;;;;9.43;2.53;;;;;;;17.61;85.01;94002.16;5141004;27;20199;-76
2022/11/20 07:53:26;;;;;;;8.60;2.43;;;;;;;17.55;84.48;93993.53;5141831;27;20189;-75
2022/11/20 07:55:53;;;;;;;5.57;2.43;;;;;;;17.63;85.02;94004.53;5141918;27;20653;-75
2022/11/20 07:58:20;;;;;;;11.50;2.40;;;;;;;17.63;85.16;94013.22;5143498;27;20282;-75
2022/11/20 08:00:47;;;;;;;5.07;2.40;;;;;;;17.67;85.29;94026.56;5141431;27;20244;-75
2022/11/20 08:03:14;;;;;;;5.90;2.30;;;;;;;17.67;84.91;94035.22;5141635;27;20191;-75
2022/11/20 08:05:40;;;;;;;5.50;2.23;;;;;;;17.74;85.08;94040.97;5143437;27;20218;-75
2022/11/20 08:08:09;;;;;;;7.67;2.97;;;;;;;17.73;84.90;94017.56;5141992;27;20188;-74
2022/11/20 08:10:36;;;;;;;7.70;3.20;;;;;;;17.74;85.10;94017.31;5140935;27;20190;-75
2022/11/20 08:15:50;;;;;;;5.20;2.70;;;;;;;17.86;83.91;94037.97;5141664;27;20548;-75
2022/11/20 08:18:18;;;;;;;10.60;3.00;;;;;;;17.99;83.12;94029.41;5141454;27;20206;-75
2022/11/20 08:20:45;;;;;;;6.17;2.90;;;;;;;17.98;83.66;94036.50;5140416;27;20202;-75
2022/11/20 08:23:13;;;;;;;6.37;2.97;;;;;;;18.05;83.68;94023.03;5142445;27;20187;-75
2022/11/20 08:25:40;;;;;;;6.73;2.50;;;;;;;17.96;82.35;94008.91;5142842;27;20245;-75
2022/11/20 08:28:09;;;;;;;7.77;2.33;;;;;;;18.11;82.09;94032.44;5141474;27;20191;-75
2022/11/20 08:30:36;;;;;;;9.47;4.43;;;;;;;18.15;82.36;94036.84;5141205;27;20187;-74
2022/11/20 08:33:05;;;;;;;7.28;3.20;;;;;;;18.13;82.42;94025.81;5141129;27;20335;-76
2022/11/20 08:35:35;;;;;;;7.70;2.90;;;;;;;18.15;82.12;94028.94;5141331;27;20187;-75
2022/11/20 08:38:02;;;;;;;10.13;2.67;;;;;;;18.15;81.75;94034.22;5143194;27;20210;-76
2022/11/20 08:40:30;;;;;;;12.53;3.17;;;;;;;18.07;83.11;94026.94;5141993;27;20180;-76
2022/11/20 08:42:57;;;;;;;8.33;2.97;;;;;;;18.17;82.01;94049.72;5140695;27;20656;-75
2022/11/20 08:45:24;;;;;;;7.73;2.20;;;;;;;18.15;84.56;94067.66;5139482;27;20211;-75
2022/11/20 08:47:51;;;;;;;10.03;2.40;;;;;;;18.01;87.64;94091.16;5141797;27;20206;-75
2022/11/20 08:50:18;;;;;;;13.50;2.93;;;;;;;17.76;92.66;94069.59;5140119;27;20591;-75
2022/11/20 08:52:45;;;;;;;9.70;2.50;;;;;;;17.51;96.14;94092.38;5143447;27;20219;-76
2022/11/20 08:55:13;;;;;;;7.53;2.63;;;;;;;17.21;99.45;94055.00;5141499;27;20726;-76
2022/11/20 08:57:41;;;;;;;8.67;2.80;;;;;;;16.95;100.00;94047.31;5142480;27;20290;-76
2022/11/20 09:00:09;;;;;;;6.63;2.90;;;;;;;16.83;100.00;94038.19;5145043;27;20256;-77
2022/11/20 09:02:36;;;;;;;7.93;3.63;;;;;;;16.80;100.00;94050.00;5146436;27;20668;-76
2022/11/20 09:05:06;;;;;;;11.53;4.07;;;;;;;16.79;100.00;94064.19;5146552;27;20214;-79
2022/11/20 09:07:33;;;;;;;11.23;3.77;;;;;;;16.70;100.00;94057.16;5149218;27;20274;-76
2022/11/20 09:10:00;;;;;;;13.43;3.43;;;;;;;16.67;100.00;94063.72;5148745;27;20267;-76
2022/11/20 09:12:27;;;;;;;11.13;3.63;;;;;;;16.57;100.00;94071.63;5148202;27;20197;-76
2022/11/20 09:14:55;;;;;;;9.47;3.30;;;;;;;16.44;100.00;94066.94;5147384;27;20197;-78
2022/11/20 09:17:23;;;;;;;10.50;3.47;;;;;;;16.33;100.00;94070.66;5137303;27;20278;-75
2022/11/20 09:19:49;;;;;;;7.87;3.43;;;;;;;16.29;100.00;94086.13;5139328;27;20199;-76
2022/11/20 09:22:16;;;;;;;10.23;3.53;;;;;;;16.18;100.00;94070.69;5141806;27;20261;-76
2022/11/20 09:24:43;;;;;;;15.73;3.33;;;;;;;16.14;100.00;94082.75;5141121;27;20693;-77
2022/11/20 09:27:10;;;;;;;5.37;2.30;;;;;;;15.98;100.00;94055.81;5138749;27;20279;-76
2022/11/20 09:29:37;;;;;;;8.37;3.10;;;;;;;15.92;100.00;94051.63;5139775;27;20190;-77
2022/11/20 09:32:06;;;;;;;8.53;2.40;;;;;;;15.88;100.00;94053.19;5142904;27;20183;-77
2022/11/20 09:34:33;;;;;;;6.43;2.20;;;;;;;15.85;100.00;94051.88;5142263;27;20552;-77
2022/11/20 09:36:59;;;;;;;5.80;2.57;;;;;;;15.85;100.00;94030.13;5141635;27;20739;-74
2022/11/20 09:39:26;;;;;;;7.27;3.00;;;;;;;15.85;100.00;94025.69;5141955;27;20676;-76
2022/11/20 09:42:12;;;;;;;7.27;2.43;;;;;;;15.88;100.00;93998.16;5138535;27;20718;-77
2022/11/20 09:44:59;;;;;;;8.83;3.47;;;;;;;16.08;100.00;94005.16;5140115;27;20198;-78
2022/11/20 09:47:39;;;;;;;9.67;2.80;;;;;;;16.30;100.00;94014.28;5140139;27;20625;-77
2022/11/20 09:50:23;;;;;;;9.90;3.70;;;;;;;16.62;100.00;94006.03;5139454;27;20182;-74
2022/11/20 09:53:02;;;;;;;8.10;3.90;;;;;;;16.93;100.00;94017.13;5139164;27;20200;-76
2022/11/20 09:55:31;;;;;;;10.67;3.30;;;;;;;17.16;100.00;94005.94;5144126;27;20186;-75
2022/11/20 09:58:00;;;;;;;12.00;3.90;;;;;;;17.66;100.00;93998.72;5147424;27;20194;-74
2022/11/20 10:00:28;;;;;;;8.27;3.30;;;;;;;18.47;100.00;93998.63;5147061;27;20195;-75
2022/11/20 10:03:02;;;;;;;11.00;3.03;;;;;;;19.67;96.30;93995.28;5144342;27;20206;-76
2022/11/20 10:05:35;;;;;;;15.03;3.43;;;;;;;21.31;90.74;93996.72;5144430;27;20204;-74
2022/11/20 10:08:13;;;;;;;8.25;3.92;;;;;;;22.56;85.23;94010.44;5143927;27;20191;-74
2022/11/20 10:10:44;;;;;;;8.55;3.60;;;;;;;22.52;84.51;94000.75;5143191;27;20203;-75
2022/11/20 10:13:37;;;;;;;11.18;3.60;;;;;;;22.87;82.67;94005.06;5144619;27;20540;-74
2022/11/20 10:16:25;;;;;;;13.45;3.35;;;;;;;23.32;80.62;93997.59;5143575;27;20199;-72
2022/11/20 10:19:18;;;;;;;12.05;3.90;;;;;;;23.47;77.62;94012.28;5144584;27;20236;-76
2022/11/20 10:22:00;;;;;;;9.25;3.20;;;;;;;23.50;77.63;94027.56;5143738;27;20187;-75
2022/11/20 10:24:56;;;;;;;12.13;3.13;;;;;;;23.07;78.11;94020.38;5126487;27;20218;-74
2022/11/20 10:27:43;;;;;;;10.30;3.13;;;;;;;22.43;79.88;94015.84;5144753;27;20222;-76
2022/11/20 10:30:13;;;;;;;12.13;3.38;;;;;;;21.88;80.55;94037.41;5139253;27;20617;-77
2022/11/20 10:32:41;;;;;;;11.57;3.75;;;;;;;21.33;82.45;94031.56;5136284;27;20196;-76
2022/11/20 10:35:22;;;;;;;14.02;3.67;;;;;;;20.82;85.50;94031.09;5145503;27;20332;-75
2022/11/20 10:37:56;;;;;;;10.10;3.40;;;;;;;20.32;89.50;94028.41;5147788;27;20697;-78
2022/11/20 10:40:33;;;;;;;13.63;4.07;;;;;;;19.67;93.22;94019.81;5144437;27;20600;-78
2022/11/20 10:43:03;;;;;;;18.13;6.60;;;;;;;19.11;92.59;94016.44;5144558;27;20729;-79
2022/11/20 10:45:41;;;;;;;13.65;5.15;;;;;;;18.82;92.46;94026.31;5144418;27;20187;-77
2022/11/20 10:48:18;;;;;;;17.25;6.43;;;;;;;18.21;97.75;94005.25;5140703;27;20186;-79
2022/11/20 10:51:11;;;;;;;18.17;6.85;;;;;;;17.92;99.01;94003.44;5141093;27;20225;-79
2022/11/20 10:53:51;;;;;;;13.47;6.63;;;;;;;17.59;100.00;94014.81;5126440;27;20661;-79
2022/11/20 10:56:23;;;;;;;15.90;5.70;;;;;;;17.26;100.00;94021.59;5141900;27;20191;-78
2022/11/20 10:59:03;;;;;;;20.87;6.87;;;;;;;16.98;100.00;94030.22;5144800;27;21011;-80
2022/11/20 11:01:30;;;;;;;13.20;5.33;;;;;;;16.61;100.00;94028.06;5136287;27;20199;-78
2022/11/20 11:03:59;;;;;;;16.70;4.37;;;;;;;16.13;100.00;94055.00;5138678;27;20187;-79
2022/11/20 11:06:36;;;;;;;8.47;3.33;;;;;;;15.83;100.00;94085.44;5135725;27;20218;-75
2022/11/20 11:09:11;;;;;;;11.40;3.00;;;;;;;14.99;100.00;94100.03;5148567;27;20190;-77
2022/11/20 11:11:39;;;;;;;4.20;1.80;;;;;;;14.15;100.00;94068.81;5152137;27;20243;-76
2022/11/20 11:14:07;;;;;;;4.63;2.20;;;;;;;13.67;100.00;94041.13;5152703;27;20901;-76
2022/11/20 11:16:34;;;;;;;5.87;1.63;;;;;;;13.32;100.00;94046.09;5136552;27;20194;-77
2022/11/20 11:19:07;;;;;;;3.47;1.40;;;;;;;13.07;100.00;94033.59;5142348;27;20192;-76
2022/11/20 11:21:41;;;;;;;7.43;1.50;;;;;;;12.88;100.00;94032.38;5141318;27;20190;-76
2022/11/20 11:24:21;;;;;;;2.80;1.50;;;;;;;12.84;100.00;94028.72;5142521;27;20226;-76
2022/11/20 11:26:53;;;;;;;5.20;1.73;;;;;;;12.82;100.00;94031.53;5141986;27;21030;-76
2022/11/20 11:29:21;;;;;;;5.70;1.87;;;;;;;12.81;100.00;94000.50;5141657;27;20184;-78
2022/11/20 11:31:47;;;;;;;5.50;1.77;;;;;;;12.85;100.00;93996.38;5142063;27;20773;-77
2022/11/20 11:34:16;;;;;;;7.47;2.10;;;;;;;12.84;100.00;94006.00;5141942;27;20562;-77
2022/11/20 11:36:53;;;;;;;3.57;1.70;;;;;;;12.92;100.00;93989.94;5143441;27;20179;-76
2022/11/20 11:39:21;;;;;;;2.50;1.60;;;;;;;12.98;100.00;94003.78;5140520;27;20186;-75
2022/11/20 11:41:49;;;;;;;5.67;1.70;;;;;;;13.00;100.00;93994.69;5142294;27;20255;-76
2022/11/20 11:47:07;;;;;;;4.60;2.10;;;;;;;13.23;100.00;94008.44;5146873;27;20222;-76
2022/11/20 11:49:34;;;;;;;8.03;2.03;;;;;;;13.39;100.00;94017.97;5144197;27;20232;-76
2022/11/20 11:52:09;;;;;;;2.93;1.80;;;;;;;13.52;100.00;94001.88;5137150;27;20714;-74